Flight Track Log - Related Links

Times and Time Zones

All times are in EST time to prevent confusion due to time zone crossing. See the SWA717 flight status page for this flight to view local times or setup timezone preferences in your user account.

Time Position Orientation Groundspeed Altitude Reporting Facility
EST Latitude Longitude Course Direction KTS MPH feet Rate Location/Type
Mon 05:42:47 PM 37.3833 -121.9500 360° North 160 184 1,200  Level Northern Cal TRACON
Mon 05:43:42 PM 37.4167 -121.9500 128° Southeast 203 234 3,200 2,078 Climbing Northern Cal TRACON
Mon 05:46:12 PM 37.3239 -121.7989 136° Southeast 199 229 8,300 2,161 Climbing Oakland Center
Mon 05:47:13 PM 37.2619 -121.7250 135° Southeast 247 284 10,800 2,926 Climbing Oakland Center
Mon 05:48:13 PM 37.1978 -121.6436 136° Southeast 297 342 14,200 3,328 Climbing Oakland Center
Mon 05:49:12 PM 37.1294 -121.5597 142° Southeast 328 377 17,400 2,874 Climbing Oakland Center
Mon 05:50:12 PM 37.0631 -121.4942 139° Southeast 341 392 19,900 2,300 Climbing Oakland Center
Mon 05:51:12 PM 36.9839 -121.4078 138° Southeast 354 407 22,000 1,800 Climbing Oakland Center
Mon 05:52:12 PM 36.8989 -121.3111 139° Southeast 385 443 23,500 1,800 Climbing Oakland Center
Mon 05:53:12 PM 36.8094 -121.2147 138° Southeast 413 475 25,600 1,934 Climbing Oakland Center
Mon 05:54:13 PM 36.7156 -121.1108 140° Southeast 428 493 27,400 1,750 Climbing Oakland Center
Mon 05:55:12 PM 36.6156 -121.0072 138° Southeast 453 521 29,100 1,750 Climbing Oakland Center
Mon 05:56:13 PM 36.5133 -120.8933 139° Southeast 473 544 30,900 2,000 Climbing Oakland Center
Mon 05:57:12 PM 36.4131 -120.7853 140° Southeast 481 554 33,100 1,950 Climbing Oakland Center
Mon 05:58:13 PM 36.3128 -120.6797 138° Southeast 476 548 34,800 1,471 Climbing Oakland Center
Mon 05:59:47 PM 36.1581 -120.5067 130° Southeast 492 566 36,900 857 Climbing Los Angeles Center
Mon 06:00:47 PM 36.0728 -120.3814 129° Southeast 486 559 37,000 50 Climbing Los Angeles Center
Mon 06:01:47 PM 35.9875 -120.2536 130° Southeast 481 554 37,000  Level Los Angeles Center
Mon 06:02:47 PM 35.9039 -120.1289 130° Southeast 476 548 37,000  Level Los Angeles Center
Mon 06:03:47 PM 35.8183 -120.0042 131° Southeast 470 541 37,000  Level Los Angeles Center
Mon 06:04:47 PM 35.7325 -119.8825 130° Southeast 475 547 37,000  Level Los Angeles Center
Mon 06:05:47 PM 35.6506 -119.7611 130° Southeast 475 547 37,000  Level Los Angeles Center
Mon 06:06:47 PM 35.5644 -119.6372 130° Southeast 475 547 37,000  Level Los Angeles Center
Mon 06:07:47 PM 35.4803 -119.5136 130° Southeast 475 547 37,000  Level Los Angeles Center
Mon 06:08:47 PM 35.3961 -119.3928 131° Southeast 475 547 37,000  Level Los Angeles Center
Mon 06:09:47 PM 35.3036 -119.2619 130° Southeast 470 541 37,000  Level Los Angeles Center
Mon 06:10:47 PM 35.2189 -119.1392 132° Southeast 470 541 37,000  Level Los Angeles Center
Mon 06:11:47 PM 35.1322 -119.0217 130° Southeast 470 541 37,000  Level Los Angeles Center
Mon 06:12:47 PM 35.0494 -118.8994 132° Southeast 470 541 37,000  Level Los Angeles Center
Mon 06:13:47 PM 34.9644 -118.7828 132° Southeast 470 541 37,000  Level Los Angeles Center
Mon 06:14:47 PM 34.8811 -118.6686 131° Southeast 462 532 37,000  Level Los Angeles Center
Mon 06:15:47 PM 34.7981 -118.5522 131° Southeast 462 532 37,000  Level Los Angeles Center
Mon 06:16:47 PM 34.7208 -118.4439 131° Southeast 462 532 37,000  Level Los Angeles Center
Mon 06:17:47 PM 34.6253 -118.3125 131° Southeast 462 532 37,000  Level Los Angeles Center
Mon 06:18:47 PM 34.5417 -118.1942 132° Southeast 462 532 37,000  Level Los Angeles Center
Mon 06:19:47 PM 34.4558 -118.0786 117° Southeast 462 532 37,000  Level Los Angeles Center
Mon 06:20:47 PM 34.3956 -117.9364 105° East 469 540 37,000  Level Los Angeles Center
Mon 06:21:47 PM 34.3603 -117.7769 107° East 469 540 37,000  Level Los Angeles Center
Mon 06:22:47 PM 34.3206 -117.6203 104° East 476 548 37,000  Level Los Angeles Center
Mon 06:23:47 PM 34.2908 -117.4764 106° East 481 554 37,000  Level Los Angeles Center
Mon 06:24:47 PM 34.2508 -117.3075 108° East 481 554 37,000  Level Los Angeles Center
Mon 06:25:47 PM 34.2086 -117.1511 107° East 481 554 37,000  Level Los Angeles Center
Mon 06:26:47 PM 34.1700 -116.9950 107° East 481 554 37,000  Level Los Angeles Center
Mon 06:27:47 PM 34.1336 -116.8542 105° East 487 560 37,000  Level Los Angeles Center
Mon 06:28:47 PM 34.0947 -116.6756 106° East 487 560 37,000  Level Los Angeles Center
Mon 06:29:47 PM 34.0558 -116.5172 108° East 487 560 37,000  Level Los Angeles Center
Mon 06:30:48 PM 34.0122 -116.3567 107° East 492 566 37,000  Level Los Angeles Center
Mon 06:31:47 PM 33.9728 -116.1989 106° East 492 566 37,000  Level Los Angeles Center
Mon 06:32:47 PM 33.9333 -116.0386 108° East 492 566 37,000  Level Los Angeles Center
Mon 06:33:47 PM 33.8914 -115.8836 107° East 498 573 37,000  Level Los Angeles Center
Mon 06:34:47 PM 33.8511 -115.7211 108° East 498 573 37,000  Level Los Angeles Center
Mon 06:35:47 PM 33.8089 -115.5661 107° East 498 573 37,000  Level Los Angeles Center
Mon 06:36:47 PM 33.7683 -115.4092 107° East 498 573 37,000 -50 Level Los Angeles Center
Mon 06:37:47 PM 33.7278 -115.2544 107° East 493 567 36,900  Descending Los Angeles Center
Mon 06:38:47 PM 33.6869 -115.0978 109° East 488 562 37,000 50 Climbing Los Angeles Center
Mon 06:39:47 PM 33.6439 -114.9458 108° East 483 556 37,000 -100 Level Los Angeles Center
Mon 06:40:47 PM 33.6025 -114.7894 104° East 483 556 36,800 -1,600 Descending Los Angeles Center
Mon 06:41:47 PM 33.5694 -114.6328 103° East 478 550 33,800 -2,667 Descending Los Angeles Center
Mon 06:43:38 PM 33.5161 -114.3642 103° East 465 535 29,200 -2,421 Descending Albuquerque Center
Mon 06:44:38 PM 33.4872 -114.2150 103° East 465 535 26,900 -2,150 Descending Albuquerque Center
Mon 06:45:38 PM 33.4597 -114.0733 103° East 454 522 24,900 -950 Descending Albuquerque Center
Mon 06:46:38 PM 33.4339 -113.9419 104° East 431 496 25,000 50 Climbing Albuquerque Center
Mon 06:47:38 PM 33.4039 -113.8028 104° East 425 489 25,000  Level Albuquerque Center
Mon 06:48:38 PM 33.3758 -113.6639 104° East 425 489 25,000 -1,050 Level Albuquerque Center
Mon 06:49:38 PM 33.3475 -113.5250 103° East 425 489 22,900 -1,550 Descending Albuquerque Center
Mon 06:50:38 PM 33.3228 -113.3964 105° East 420 483 21,900 -1,450 Descending Albuquerque Center
Mon 06:51:38 PM 33.2956 -113.2728 101° East 402 463 20,000 -2,050 Descending Albuquerque Center
Mon 06:52:38 PM 33.2761 -113.1572 91° East 374 430 17,800 -1,500 Descending Albuquerque Center
Mon 06:53:38 PM 33.2739 -113.0306 87° East 368 423 17,000 -500 Descending Albuquerque Center
Mon 06:54:38 PM 33.2794 -112.9117 89° East 363 418 16,800 -500 Descending Albuquerque Center
Mon 06:55:38 PM 33.2803 -112.8025 89° East 357 411 16,000 -650 Descending Albuquerque Center
Mon 06:56:38 PM 33.2811 -112.6906 87° East 341 392 15,500 -1,000 Descending Albuquerque Center
Mon 06:57:38 PM 33.2864 -112.5717 91° East 327 376 14,000 -1,529 Descending Albuquerque Center
Mon 06:59:11 PM 33.2833 -112.4000 79° East 315 362 11,600 -1,275 Descending Phoenix TRACON
Mon 07:00:18 PM 33.3000 -112.3000 90° East 301 346 10,600 -945 Descending Phoenix TRACON
Mon 07:01:18 PM 33.3000 -112.2000 77° East 280 322 9,600 -750 Descending Phoenix TRACON
Mon 07:02:18 PM 33.3167 -112.1167 77° East 274 315 9,100 -789 Descending Phoenix TRACON
Mon 07:03:12 PM 33.3333 -112.0333 77° East 271 312 8,100 -1,105 Descending Phoenix TRACON
Mon 07:04:12 PM 33.3500 -111.9500 90° East 269 310 7,000 -895 Descending Phoenix TRACON
Mon 07:05:06 PM 33.3500 -111.8667 90° East 249 287 6,400 -895 Descending Phoenix TRACON
Mon 07:06:06 PM 33.3500 -111.8000 348° North 254 292 5,300 -952 Descending Phoenix TRACON
Mon 07:07:12 PM 33.4167 -111.8167 287° West 228 262 4,400 -1,050 Descending Phoenix TRACON
Mon 07:08:06 PM 33.4333 -111.8833 287° West 210 242 3,200 -1,333 Descending Phoenix TRACON

Login

Don't have an account? Register now (free) for customized features, flight alerts, and more!